sensor_id;sensor_type;location;lat;lon;timestamp;temperature;humidity
16283;DHT22;8249;48.708;9.030;2023-04-06T00:00:48;0.50;99.90
16283;DHT22;8249;48.708;9.030;2023-04-06T00:03:17;0.40;99.90
16283;DHT22;8249;48.708;9.030;2023-04-06T00:05:44;0.40;99.90
16283;DHT22;8249;48.708;9.030;2023-04-06T00:08:11;0.40;99.90
16283;DHT22;8249;48.708;9.030;2023-04-06T00:10:38;0.30;99.90
16283;DHT22;8249;48.708;9.030;2023-04-06T00:13:06;0.30;99.90
16283;DHT22;8249;48.708;9.030;2023-04-06T00:15:33;0.30;99.90
16283;DHT22;8249;48.708;9.030;2023-04-06T00:18:00;0.30;99.90
16283;DHT22;8249;48.708;9.030;2023-04-06T00:20:28;0.30;99.90
16283;DHT22;8249;48.708;9.030;2023-04-06T00:22:55;0.20;99.90
16283;DHT22;8249;48.708;9.030;2023-04-06T00:25:22;0.20;99.90
16283;DHT22;8249;48.708;9.030;2023-04-06T00:27:50;0.20;99.90
16283;DHT22;8249;48.708;9.030;2023-04-06T00:30:17;0.20;99.90
16283;DHT22;8249;48.708;9.030;2023-04-06T00:32:44;0.20;99.90
16283;DHT22;8249;48.708;9.030;2023-04-06T00:35:11;0.20;99.90
16283;DHT22;8249;48.708;9.030;2023-04-06T00:37:39;0.20;99.90
16283;DHT22;8249;48.708;9.030;2023-04-06T00:40:07;0.10;99.90
16283;DHT22;8249;48.708;9.030;2023-04-06T00:42:36;0.10;99.90
16283;DHT22;8249;48.708;9.030;2023-04-06T00:45:03;0.10;99.90
16283;DHT22;8249;48.708;9.030;2023-04-06T00:47:30;0.10;99.90
16283;DHT22;8249;48.708;9.030;2023-04-06T00:49:57;0.10;99.90
16283;DHT22;8249;48.708;9.030;2023-04-06T00:52:24;0.10;99.90
16283;DHT22;8249;48.708;9.030;2023-04-06T00:54:54;0.10;99.90
16283;DHT22;8249;48.708;9.030;2023-04-06T00:57:22;0.00;99.90
16283;DHT22;8249;48.708;9.030;2023-04-06T00:59:54;0.00;99.90
16283;DHT22;8249;48.708;9.030;2023-04-06T01:02:21;0.10;99.90
16283;DHT22;8249;48.708;9.030;2023-04-06T01:04:51;0.00;99.90
16283;DHT22;8249;48.708;9.030;2023-04-06T01:07:27;0.00;99.90
16283;DHT22;8249;48.708;9.030;2023-04-06T01:10:07;0.00;99.90
16283;DHT22;8249;48.708;9.030;2023-04-06T01:12:36;-0.10;99.90
16283;DHT22;8249;48.708;9.030;2023-04-06T01:15:09;-0.10;99.90
16283;DHT22;8249;48.708;9.030;2023-04-06T01:17:40;-0.10;99.90
16283;DHT22;8249;48.708;9.030;2023-04-06T01:20:12;-0.10;99.90
16283;DHT22;8249;48.708;9.030;2023-04-06T01:22:40;-0.10;99.90
16283;DHT22;8249;48.708;9.030;2023-04-06T01:25:09;-0.10;99.90
16283;DHT22;8249;48.708;9.030;2023-04-06T01:27:51;-0.20;99.90
16283;DHT22;8249;48.708;9.030;2023-04-06T01:30:25;-0.20;99.90
16283;DHT22;8249;48.708;9.030;2023-04-06T01:32:57;-0.20;99.90
16283;DHT22;8249;48.708;9.030;2023-04-06T01:35:35;-0.20;99.90
16283;DHT22;8249;48.708;9.030;2023-04-06T01:38:16;-0.20;99.90
16283;DHT22;8249;48.708;9.030;2023-04-06T01:40:44;-0.30;99.90
16283;DHT22;8249;48.708;9.030;2023-04-06T01:43:11;-0.30;99.90
16283;DHT22;8249;48.708;9.030;2023-04-06T01:45:54;-0.30;99.90
16283;DHT22;8249;48.708;9.030;2023-04-06T01:48:25;-0.30;99.90
16283;DHT22;8249;48.708;9.030;2023-04-06T01:50:52;-0.40;99.90
16283;DHT22;8249;48.708;9.030;2023-04-06T01:53:26;-0.40;99.90
16283;DHT22;8249;48.708;9.030;2023-04-06T01:55:59;-0.40;99.90
16283;DHT22;8249;48.708;9.030;2023-04-06T01:58:33;-0.40;99.90
16283;DHT22;8249;48.708;9.030;2023-04-06T02:01:01;-0.50;99.90
16283;DHT22;8249;48.708;9.030;2023-04-06T02:03:35;-0.50;99.90
16283;DHT22;8249;48.708;9.030;2023-04-06T02:06:07;-0.50;99.90
16283;DHT22;8249;48.708;9.030;2023-04-06T02:08:39;-0.60;99.90
16283;DHT22;8249;48.708;9.030;2023-04-06T02:11:06;-0.60;99.90
16283;DHT22;8249;48.708;9.030;2023-04-06T02:13:40;-0.60;99.90
16283;DHT22;8249;48.708;9.030;2023-04-06T02:16:08;-0.60;99.90
16283;DHT22;8249;48.708;9.030;2023-04-06T02:18:35;-0.50;99.90
16283;DHT22;8249;48.708;9.030;2023-04-06T02:21:03;-0.60;99.90
16283;DHT22;8249;48.708;9.030;2023-04-06T02:23:30;-0.60;99.90
16283;DHT22;8249;48.708;9.030;2023-04-06T02:25:58;-0.60;99.90
16283;DHT22;8249;48.708;9.030;2023-04-06T02:28:26;-0.60;99.90
16283;DHT22;8249;48.708;9.030;2023-04-06T02:30:53;-0.60;99.90
16283;DHT22;8249;48.708;9.030;2023-04-06T02:33:24;-0.60;99.90
16283;DHT22;8249;48.708;9.030;2023-04-06T02:35:51;-0.60;99.90
16283;DHT22;8249;48.708;9.030;2023-04-06T02:38:18;-0.70;99.90
16283;DHT22;8249;48.708;9.030;2023-04-06T02:40:46;-0.70;99.90
16283;DHT22;8249;48.708;9.030;2023-04-06T02:43:23;-0.70;99.90
16283;DHT22;8249;48.708;9.030;2023-04-06T02:45:56;-0.70;99.90
16283;DHT22;8249;48.708;9.030;2023-04-06T02:48:24;-0.70;99.90
16283;DHT22;8249;48.708;9.030;2023-04-06T02:50:52;-0.70;99.90
16283;DHT22;8249;48.708;9.030;2023-04-06T02:53:19;-0.70;99.90
16283;DHT22;8249;48.708;9.030;2023-04-06T02:55:46;-0.70;99.90
16283;DHT22;8249;48.708;9.030;2023-04-06T02:58:13;-0.70;99.90
16283;DHT22;8249;48.708;9.030;2023-04-06T03:00:49;-0.70;99.90
16283;DHT22;8249;48.708;9.030;2023-04-06T03:03:16;-0.80;99.90
16283;DHT22;8249;48.708;9.030;2023-04-06T03:05:44;-0.80;99.90
16283;DHT22;8249;48.708;9.030;2023-04-06T03:08:13;-0.80;99.90
16283;DHT22;8249;48.708;9.030;2023-04-06T03:10:43;-0.90;99.90
16283;DHT22;8249;48.708;9.030;2023-04-06T03:13:10;-0.90;99.90
16283;DHT22;8249;48.708;9.030;2023-04-06T03:15:51;-0.90;99.90
16283;DHT22;8249;48.708;9.030;2023-04-06T03:18:22;-0.90;99.90
16283;DHT22;8249;48.708;9.030;2023-04-06T03:20:50;-0.70;99.90
16283;DHT22;8249;48.708;9.030;2023-04-06T03:23:19;-0.90;99.90
16283;DHT22;8249;48.708;9.030;2023-04-06T03:25:51;-0.80;99.90
16283;DHT22;8249;48.708;9.030;2023-04-06T03:28:19;-0.90;99.90
16283;DHT22;8249;48.708;9.030;2023-04-06T03:30:53;-0.90;99.90
16283;DHT22;8249;48.708;9.030;2023-04-06T03:33:40;-0.90;99.90
16283;DHT22;8249;48.708;9.030;2023-04-06T03:36:10;-0.90;99.90
16283;DHT22;8249;48.708;9.030;2023-04-06T03:38:40;-0.90;99.90
16283;DHT22;8249;48.708;9.030;2023-04-06T03:41:11;-1.00;99.90
16283;DHT22;8249;48.708;9.030;2023-04-06T03:43:42;-0.90;99.90
16283;DHT22;8249;48.708;9.030;2023-04-06T03:46:10;-0.90;99.90
16283;DHT22;8249;48.708;9.030;2023-04-06T03:48:37;-0.90;99.90
16283;DHT22;8249;48.708;9.030;2023-04-06T03:51:06;-0.90;99.90
16283;DHT22;8249;48.708;9.030;2023-04-06T03:53:33;-0.90;99.90
16283;DHT22;8249;48.708;9.030;2023-04-06T03:56:00;-1.00;99.90
16283;DHT22;8249;48.708;9.030;2023-04-06T03:58:27;-1.00;99.90
16283;DHT22;8249;48.708;9.030;2023-04-06T04:00:54;-1.00;99.90
16283;DHT22;8249;48.708;9.030;2023-04-06T04:03:23;-1.00;99.90
16283;DHT22;8249;48.708;9.030;2023-04-06T04:05:52;-1.00;99.90
16283;DHT22;8249;48.708;9.030;2023-04-06T04:08:20;-1.00;99.90
16283;DHT22;8249;48.708;9.030;2023-04-06T04:10:47;-1.10;99.90
16283;DHT22;8249;48.708;9.030;2023-04-06T04:13:14;-1.00;99.90
16283;DHT22;8249;48.708;9.030;2023-04-06T04:15:44;-1.10;99.90
16283;DHT22;8249;48.708;9.030;2023-04-06T04:18:14;-1.10;99.90
16283;DHT22;8249;48.708;9.030;2023-04-06T04:20:43;-1.10;99.90
16283;DHT22;8249;48.708;9.030;2023-04-06T04:23:11;-1.10;99.90
16283;DHT22;8249;48.708;9.030;2023-04-06T04:25:38;-1.20;99.90
16283;DHT22;8249;48.708;9.030;2023-04-06T04:28:06;-1.20;99.90
16283;DHT22;8249;48.708;9.030;2023-04-06T04:30:33;-1.20;99.90
16283;DHT22;8249;48.708;9.030;2023-04-06T04:33:05;-1.30;99.90
16283;DHT22;8249;48.708;9.030;2023-04-06T04:35:32;-1.20;99.90
16283;DHT22;8249;48.708;9.030;2023-04-06T04:38:00;-1.30;99.90
16283;DHT22;8249;48.708;9.030;2023-04-06T04:40:27;-1.30;99.90
16283;DHT22;8249;48.708;9.030;2023-04-06T04:43:03;-1.20;99.90
16283;DHT22;8249;48.708;9.030;2023-04-06T04:45:33;-1.20;99.90
16283;DHT22;8249;48.708;9.030;2023-04-06T04:48:13;-1.20;99.90
16283;DHT22;8249;48.708;9.030;2023-04-06T04:50:54;-1.20;99.90
16283;DHT22;8249;48.708;9.030;2023-04-06T04:53:26;-1.20;99.90
16283;DHT22;8249;48.708;9.030;2023-04-06T04:55:59;-1.20;99.90
16283;DHT22;8249;48.708;9.030;2023-04-06T04:58:26;-1.20;99.90
16283;DHT22;8249;48.708;9.030;2023-04-06T05:00:56;-1.20;99.90
16283;DHT22;8249;48.708;9.030;2023-04-06T05:03:25;-1.20;99.90
16283;DHT22;8249;48.708;9.030;2023-04-06T05:06:03;-1.00;99.90
16283;DHT22;8249;48.708;9.030;2023-04-06T05:08:34;-0.90;99.90
16283;DHT22;8249;48.708;9.030;2023-04-06T05:11:01;-0.80;99.90
16283;DHT22;8249;48.708;9.030;2023-04-06T05:13:34;-0.70;99.90
16283;DHT22;8249;48.708;9.030;2023-04-06T05:16:06;-0.60;99.90
16283;DHT22;8249;48.708;9.030;2023-04-06T05:18:34;-0.60;99.90
16283;DHT22;8249;48.708;9.030;2023-04-06T05:21:02;-0.70;99.90
16283;DHT22;8249;48.708;9.030;2023-04-06T05:23:39;-0.70;99.90
16283;DHT22;8249;48.708;9.030;2023-04-06T05:26:06;-0.80;99.90
16283;DHT22;8249;48.708;9.030;2023-04-06T05:28:33;-0.80;99.90
16283;DHT22;8249;48.708;9.030;2023-04-06T05:31:02;-0.70;99.90
16283;DHT22;8249;48.708;9.030;2023-04-06T05:33:37;-0.70;99.90
16283;DHT22;8249;48.708;9.030;2023-04-06T05:36:08;-0.70;99.90
16283;DHT22;8249;48.708;9.030;2023-04-06T05:38:41;-0.70;99.90
16283;DHT22;8249;48.708;9.030;2023-04-06T05:41:21;-0.60;99.90
16283;DHT22;8249;48.708;9.030;2023-04-06T05:43:48;-0.50;99.90
16283;DHT22;8249;48.708;9.030;2023-04-06T05:46:15;-0.50;99.90
16283;DHT22;8249;48.708;9.030;2023-04-06T05:48:42;-0.50;99.90
16283;DHT22;8249;48.708;9.030;2023-04-06T05:51:11;-0.40;99.90
16283;DHT22;8249;48.708;9.030;2023-04-06T05:53:49;-0.30;99.90
16283;DHT22;8249;48.708;9.030;2023-04-06T05:56:16;-0.30;99.90
16283;DHT22;8249;48.708;9.030;2023-04-06T05:58:43;-0.20;99.90
16283;DHT22;8249;48.708;9.030;2023-04-06T06:01:13;-0.10;99.90
16283;DHT22;8249;48.708;9.030;2023-04-06T06:03:44;-0.10;99.90
16283;DHT22;8249;48.708;9.030;2023-04-06T06:06:12;0.00;99.90
16283;DHT22;8249;48.708;9.030;2023-04-06T06:08:55;0.10;99.90
16283;DHT22;8249;48.708;9.030;2023-04-06T06:11:24;0.30;99.90
16283;DHT22;8249;48.708;9.030;2023-04-06T06:13:52;0.50;99.90
16283;DHT22;8249;48.708;9.030;2023-04-06T06:16:19;0.70;99.90
16283;DHT22;8249;48.708;9.030;2023-04-06T06:18:47;0.90;99.90
16283;DHT22;8249;48.708;9.030;2023-04-06T06:21:15;1.10;99.90
16283;DHT22;8249;48.708;9.030;2023-04-06T06:23:43;1.30;99.90
16283;DHT22;8249;48.708;9.030;2023-04-06T06:26:16;1.50;99.90
16283;DHT22;8249;48.708;9.030;2023-04-06T06:28:43;1.70;99.90
16283;DHT22;8249;48.708;9.030;2023-04-06T06:31:12;1.90;99.90
16283;DHT22;8249;48.708;9.030;2023-04-06T06:33:39;2.00;99.90
16283;DHT22;8249;48.708;9.030;2023-04-06T06:36:07;2.20;99.90
16283;DHT22;8249;48.708;9.030;2023-04-06T06:38:34;2.40;99.90
16283;DHT22;8249;48.708;9.030;2023-04-06T06:41:03;2.70;99.90
16283;DHT22;8249;48.708;9.030;2023-04-06T06:43:35;2.90;99.90
16283;DHT22;8249;48.708;9.030;2023-04-06T06:46:07;3.10;99.90
16283;DHT22;8249;48.708;9.030;2023-04-06T06:48:34;3.20;99.90
16283;DHT22;8249;48.708;9.030;2023-04-06T06:51:01;3.50;99.90
16283;DHT22;8249;48.708;9.030;2023-04-06T06:53:28;3.80;99.90
16283;DHT22;8249;48.708;9.030;2023-04-06T06:55:55;3.90;99.90
16283;DHT22;8249;48.708;9.030;2023-04-06T06:58:23;4.10;99.90
16283;DHT22;8249;48.708;9.030;2023-04-06T07:00:55;4.30;99.90
16283;DHT22;8249;48.708;9.030;2023-04-06T07:03:23;4.50;99.90
16283;DHT22;8249;48.708;9.030;2023-04-06T07:05:50;4.70;99.90
16283;DHT22;8249;48.708;9.030;2023-04-06T07:08:20;4.80;99.90
16283;DHT22;8249;48.708;9.030;2023-04-06T07:10:47;5.00;99.90
16283;DHT22;8249;48.708;9.030;2023-04-06T07:13:14;5.20;99.90
16283;DHT22;8249;48.708;9.030;2023-04-06T07:15:44;5.50;99.90
16283;DHT22;8249;48.708;9.030;2023-04-06T07:18:13;5.60;99.90
16283;DHT22;8249;48.708;9.030;2023-04-06T07:20:40;5.80;99.90
16283;DHT22;8249;48.708;9.030;2023-04-06T07:23:08;6.00;99.90
16283;DHT22;8249;48.708;9.030;2023-04-06T07:25:34;6.10;99.90
16283;DHT22;8249;48.708;9.030;2023-04-06T07:28:02;6.30;99.90
16283;DHT22;8249;48.708;9.030;2023-04-06T07:30:29;6.40;99.90
16283;DHT22;8249;48.708;9.030;2023-04-06T07:32:56;6.60;99.90
16283;DHT22;8249;48.708;9.030;2023-04-06T07:35:27;6.70;99.90
16283;DHT22;8249;48.708;9.030;2023-04-06T07:37:57;6.90;99.90
16283;DHT22;8249;48.708;9.030;2023-04-06T07:40:24;7.10;99.90
16283;DHT22;8249;48.708;9.030;2023-04-06T07:42:52;7.30;99.90
16283;DHT22;8249;48.708;9.030;2023-04-06T07:45:19;7.30;99.90
16283;DHT22;8249;48.708;9.030;2023-04-06T07:47:47;7.40;99.90
16283;DHT22;8249;48.708;9.030;2023-04-06T07:50:14;7.70;99.90
16283;DHT22;8249;48.708;9.030;2023-04-06T07:52:43;8.10;99.90
16283;DHT22;8249;48.708;9.030;2023-04-06T07:55:10;8.30;99.90
16283;DHT22;8249;48.708;9.030;2023-04-06T07:57:37;8.50;99.90
16283;DHT22;8249;48.708;9.030;2023-04-06T08:00:05;8.60;99.90
16283;DHT22;8249;48.708;9.030;2023-04-06T08:02:38;8.80;99.90
16283;DHT22;8249;48.708;9.030;2023-04-06T08:05:05;8.80;99.70
16283;DHT22;8249;48.708;9.030;2023-04-06T08:07:32;8.90;99.30
16283;DHT22;8249;48.708;9.030;2023-04-06T08:10:01;9.20;99.10
16283;DHT22;8249;48.708;9.030;2023-04-06T08:12:28;9.20;98.30
16283;DHT22;8249;48.708;9.030;2023-04-06T08:14:55;9.40;98.50
16283;DHT22;8249;48.708;9.030;2023-04-06T08:17:22;9.80;97.00
16283;DHT22;8249;48.708;9.030;2023-04-06T08:19:49;9.90;96.10
16283;DHT22;8249;48.708;9.030;2023-04-06T08:22:16;10.10;95.30
16283;DHT22;8249;48.708;9.030;2023-04-06T08:24:44;10.10;94.10
16283;DHT22;8249;48.708;9.030;2023-04-06T08:27:12;10.30;93.90
16283;DHT22;8249;48.708;9.030;2023-04-06T08:29:40;10.80;93.40
16283;DHT22;8249;48.708;9.030;2023-04-06T08:32:07;11.00;91.80
16283;DHT22;8249;48.708;9.030;2023-04-06T08:34:34;11.30;91.60
16283;DHT22;8249;48.708;9.030;2023-04-06T08:37:01;11.90;91.00
16283;DHT22;8249;48.708;9.030;2023-04-06T08:39:28;12.00;89.10
16283;DHT22;8249;48.708;9.030;2023-04-06T08:41:56;12.50;90.10
16283;DHT22;8249;48.708;9.030;2023-04-06T08:44:26;12.90;85.90
16283;DHT22;8249;48.708;9.030;2023-04-06T08:46:54;13.00;83.20
16283;DHT22;8249;48.708;9.030;2023-04-06T08:49:21;13.00;81.40
16283;DHT22;8249;48.708;9.030;2023-04-06T08:51:49;13.20;80.00
16283;DHT22;8249;48.708;9.030;2023-04-06T08:54:17;13.10;79.40
16283;DHT22;8249;48.708;9.030;2023-04-06T08:56:44;13.50;79.80
16283;DHT22;8249;48.708;9.030;2023-04-06T08:59:12;13.80;80.50
16283;DHT22;8249;48.708;9.030;2023-04-06T09:01:42;14.30;76.90
16283;DHT22;8249;48.708;9.030;2023-04-06T09:04:11;14.70;78.90
16283;DHT22;8249;48.708;9.030;2023-04-06T09:06:39;15.40;80.30
16283;DHT22;8249;48.708;9.030;2023-04-06T09:09:06;15.80;77.30
16283;DHT22;8249;48.708;9.030;2023-04-06T09:11:44;16.10;74.60
16283;DHT22;8249;48.708;9.030;2023-04-06T09:14:11;16.30;77.10
16283;DHT22;8249;48.708;9.030;2023-04-06T09:16:40;16.40;74.60
16283;DHT22;8249;48.708;9.030;2023-04-06T09:19:08;16.80;73.80
16283;DHT22;8249;48.708;9.030;2023-04-06T09:21:35;16.90;73.40
16283;DHT22;8249;48.708;9.030;2023-04-06T09:24:04;17.00;67.10
16283;DHT22;8249;48.708;9.030;2023-04-06T09:26:31;16.50;66.80
16283;DHT22;8249;48.708;9.030;2023-04-06T09:29:00;16.10;69.20
16283;DHT22;8249;48.708;9.030;2023-04-06T09:31:30;15.70;67.00
16283;DHT22;8249;48.708;9.030;2023-04-06T09:34:00;15.80;69.80
16283;DHT22;8249;48.708;9.030;2023-04-06T09:36:31;15.80;69.40
16283;DHT22;8249;48.708;9.030;2023-04-06T09:38:59;15.50;68.00
16283;DHT22;8249;48.708;9.030;2023-04-06T09:41:28;15.20;67.40
16283;DHT22;8249;48.708;9.030;2023-04-06T09:44:03;15.50;70.60
16283;DHT22;8249;48.708;9.030;2023-04-06T09:46:32;16.00;65.00
16283;DHT22;8249;48.708;9.030;2023-04-06T09:49:02;16.50;62.70
16283;DHT22;8249;48.708;9.030;2023-04-06T09:51:37;16.20;62.50
16283;DHT22;8249;48.708;9.030;2023-04-06T09:54:06;16.50;69.00
16283;DHT22;8249;48.708;9.030;2023-04-06T09:56:37;16.90;63.00
16283;DHT22;8249;48.708;9.030;2023-04-06T09:59:12;16.60;61.20
16283;DHT22;8249;48.708;9.030;2023-04-06T10:01:40;16.60;61.60
16283;DHT22;8249;48.708;9.030;2023-04-06T10:04:21;16.60;62.60
16283;DHT22;8249;48.708;9.030;2023-04-06T10:06:51;16.50;61.70
16283;DHT22;8249;48.708;9.030;2023-04-06T10:09:18;16.90;62.40
16283;DHT22;8249;48.708;9.030;2023-04-06T10:11:50;16.70;60.30
16283;DHT22;8249;48.708;9.030;2023-04-06T10:14:18;16.70;60.00
16283;DHT22;8249;48.708;9.030;2023-04-06T10:16:46;17.10;60.20
16283;DHT22;8249;48.708;9.030;2023-04-06T10:19:21;17.80;60.10
16283;DHT22;8249;48.708;9.030;2023-04-06T10:21:51;18.20;60.90
16283;DHT22;8249;48.708;9.030;2023-04-06T10:24:20;18.70;58.40
16283;DHT22;8249;48.708;9.030;2023-04-06T10:26:57;17.70;57.90
16283;DHT22;8249;48.708;9.030;2023-04-06T10:29:24;17.30;59.80
16283;DHT22;8249;48.708;9.030;2023-04-06T10:31:51;17.50;58.50
16283;DHT22;8249;48.708;9.030;2023-04-06T10:34:20;17.50;58.50
16283;DHT22;8249;48.708;9.030;2023-04-06T10:36:47;17.10;58.60
16283;DHT22;8249;48.708;9.030;2023-04-06T10:39:14;17.20;59.70
16283;DHT22;8249;48.708;9.030;2023-04-06T10:41:42;17.70;58.80
16283;DHT22;8249;48.708;9.030;2023-04-06T10:44:17;18.30;60.40
16283;DHT22;8249;48.708;9.030;2023-04-06T10:46:53;18.70;56.10
16283;DHT22;8249;48.708;9.030;2023-04-06T10:49:22;18.60;56.10
16283;DHT22;8249;48.708;9.030;2023-04-06T10:51:52;18.40;57.30
16283;DHT22;8249;48.708;9.030;2023-04-06T10:54:21;19.10;55.90
16283;DHT22;8249;48.708;9.030;2023-04-06T10:56:49;19.10;54.00
16283;DHT22;8249;48.708;9.030;2023-04-06T10:59:19;18.60;55.70
16283;DHT22;8249;48.708;9.030;2023-04-06T11:01:46;18.10;54.70
16283;DHT22;8249;48.708;9.030;2023-04-06T11:04:16;18.50;57.00
16283;DHT22;8249;48.708;9.030;2023-04-06T11:06:48;19.30;54.70
16283;DHT22;8249;48.708;9.030;2023-04-06T11:09:24;19.00;52.30
16283;DHT22;8249;48.708;9.030;2023-04-06T11:11:52;18.60;53.70
16283;DHT22;8249;48.708;9.030;2023-04-06T11:14:19;18.50;53.60
16283;DHT22;8249;48.708;9.030;2023-04-06T11:16:47;18.30;53.80
16283;DHT22;8249;48.708;9.030;2023-04-06T11:19:17;18.80;54.10
16283;DHT22;8249;48.708;9.030;2023-04-06T11:21:47;18.90;51.60
16283;DHT22;8249;48.708;9.030;2023-04-06T11:24:17;19.20;51.80
16283;DHT22;8249;48.708;9.030;2023-04-06T11:26:48;19.50;54.10
16283;DHT22;8249;48.708;9.030;2023-04-06T11:29:17;20.50;52.00
16283;DHT22;8249;48.708;9.030;2023-04-06T11:31:46;20.70;52.00
16283;DHT22;8249;48.708;9.030;2023-04-06T11:34:17;20.40;50.40
16283;DHT22;8249;48.708;9.030;2023-04-06T11:36:47;20.20;50.90
16283;DHT22;8249;48.708;9.030;2023-04-06T11:39:18;19.80;51.00
16283;DHT22;8249;48.708;9.030;2023-04-06T11:41:47;19.70;50.90
16283;DHT22;8249;48.708;9.030;2023-04-06T11:44:14;20.30;51.30
16283;DHT22;8249;48.708;9.030;2023-04-06T11:46:51;20.40;52.00
16283;DHT22;8249;48.708;9.030;2023-04-06T11:49:18;19.70;51.50
16283;DHT22;8249;48.708;9.030;2023-04-06T11:51:47;19.40;50.10
16283;DHT22;8249;48.708;9.030;2023-04-06T11:54:14;19.10;50.30
16283;DHT22;8249;48.708;9.030;2023-04-06T11:56:46;19.50;51.00
16283;DHT22;8249;48.708;9.030;2023-04-06T11:59:13;19.40;50.60
16283;DHT22;8249;48.708;9.030;2023-04-06T12:01:45;19.60;49.40
16283;DHT22;8249;48.708;9.030;2023-04-06T12:04:12;19.90;48.10
16283;DHT22;8249;48.708;9.030;2023-04-06T12:06:39;20.10;47.30
16283;DHT22;8249;48.708;9.030;2023-04-06T12:09:07;19.90;51.10
16283;DHT22;8249;48.708;9.030;2023-04-06T12:11:35;20.60;50.40
16283;DHT22;8249;48.708;9.030;2023-04-06T12:14:02;20.80;51.50
16283;DHT22;8249;48.708;9.030;2023-04-06T12:16:30;20.50;50.20
16283;DHT22;8249;48.708;9.030;2023-04-06T12:18:57;20.40;49.80
16283;DHT22;8249;48.708;9.030;2023-04-06T12:21:24;20.00;50.60
16283;DHT22;8249;48.708;9.030;2023-04-06T12:23:51;19.80;50.30
16283;DHT22;8249;48.708;9.030;2023-04-06T12:26:20;19.40;48.80
16283;DHT22;8249;48.708;9.030;2023-04-06T12:28:47;19.60;50.20
16283;DHT22;8249;48.708;9.030;2023-04-06T12:31:15;20.20;49.40
16283;DHT22;8249;48.708;9.030;2023-04-06T12:33:42;20.70;49.60
16283;DHT22;8249;48.708;9.030;2023-04-06T12:36:12;20.90;49.80
16283;DHT22;8249;48.708;9.030;2023-04-06T12:38:39;20.50;49.80
16283;DHT22;8249;48.708;9.030;2023-04-06T12:41:07;20.40;48.80
16283;DHT22;8249;48.708;9.030;2023-04-06T12:43:35;20.40;49.70
16283;DHT22;8249;48.708;9.030;2023-04-06T12:46:03;19.60;50.60
16283;DHT22;8249;48.708;9.030;2023-04-06T12:48:30;19.00;51.70
16283;DHT22;8249;48.708;9.030;2023-04-06T12:50:58;18.90;51.50
16283;DHT22;8249;48.708;9.030;2023-04-06T12:53:25;18.70;51.40
16283;DHT22;8249;48.708;9.030;2023-04-06T12:55:54;18.90;53.00
16283;DHT22;8249;48.708;9.030;2023-04-06T12:58:21;18.80;50.70
16283;DHT22;8249;48.708;9.030;2023-04-06T13:00:50;18.30;50.30
16283;DHT22;8249;48.708;9.030;2023-04-06T13:03:18;19.00;50.90
16283;DHT22;8249;48.708;9.030;2023-04-06T13:05:46;19.80;50.60
16283;DHT22;8249;48.708;9.030;2023-04-06T13:08:13;20.10;49.10
16283;DHT22;8249;48.708;9.030;2023-04-06T13:10:43;19.70;49.30
16283;DHT22;8249;48.708;9.030;2023-04-06T13:13:10;19.50;50.00
16283;DHT22;8249;48.708;9.030;2023-04-06T13:15:37;19.20;51.20
16283;DHT22;8249;48.708;9.030;2023-04-06T13:18:06;19.10;49.30
16283;DHT22;8249;48.708;9.030;2023-04-06T13:20:33;18.30;49.10
16283;DHT22;8249;48.708;9.030;2023-04-06T13:23:00;18.30;48.80
16283;DHT22;8249;48.708;9.030;2023-04-06T13:25:27;18.30;50.30
16283;DHT22;8249;48.708;9.030;2023-04-06T13:27:55;19.10;50.40
16283;DHT22;8249;48.708;9.030;2023-04-06T13:30:22;19.20;50.60
16283;DHT22;8249;48.708;9.030;2023-04-06T13:32:49;19.00;52.00
16283;DHT22;8249;48.708;9.030;2023-04-06T13:35:18;18.50;50.90
16283;DHT22;8249;48.708;9.030;2023-04-06T13:37:45;17.80;51.80
16283;DHT22;8249;48.708;9.030;2023-04-06T13:40:12;17.50;52.50
16283;DHT22;8249;48.708;9.030;2023-04-06T13:42:39;17.60;53.00
16283;DHT22;8249;48.708;9.030;2023-04-06T13:45:10;17.60;53.10
16283;DHT22;8249;48.708;9.030;2023-04-06T13:47:37;17.50;53.50
16283;DHT22;8249;48.708;9.030;2023-04-06T13:50:05;17.50;54.70
16283;DHT22;8249;48.708;9.030;2023-04-06T13:52:34;17.20;53.50
16283;DHT22;8249;48.708;9.030;2023-04-06T13:55:02;17.40;53.50
16283;DHT22;8249;48.708;9.030;2023-04-06T13:57:29;17.90;53.60
16283;DHT22;8249;48.708;9.030;2023-04-06T13:59:56;19.00;55.00
16283;DHT22;8249;48.708;9.030;2023-04-06T14:02:23;19.80;53.60
16283;DHT22;8249;48.708;9.030;2023-04-06T14:04:52;20.10;50.70
16283;DHT22;8249;48.708;9.030;2023-04-06T14:07:20;20.80;53.60
16283;DHT22;8249;48.708;9.030;2023-04-06T14:09:49;21.30;51.80
16283;DHT22;8249;48.708;9.030;2023-04-06T14:12:16;21.30;52.10
16283;DHT22;8249;48.708;9.030;2023-04-06T14:14:43;21.30;49.90
16283;DHT22;8249;48.708;9.030;2023-04-06T14:17:09;21.60;51.60
16283;DHT22;8249;48.708;9.030;2023-04-06T14:19:36;21.40;51.80
16283;DHT22;8249;48.708;9.030;2023-04-06T14:22:03;20.80;53.70
16283;DHT22;8249;48.708;9.030;2023-04-06T14:24:30;20.90;53.60
16283;DHT22;8249;48.708;9.030;2023-04-06T14:26:59;20.80;50.70
16283;DHT22;8249;48.708;9.030;2023-04-06T14:29:26;20.90;51.70
16283;DHT22;8249;48.708;9.030;2023-04-06T14:31:53;20.70;52.00
16283;DHT22;8249;48.708;9.030;2023-04-06T14:34:25;20.40;52.40
16283;DHT22;8249;48.708;9.030;2023-04-06T14:36:52;19.90;51.30
16283;DHT22;8249;48.708;9.030;2023-04-06T14:39:19;19.20;52.10
16283;DHT22;8249;48.708;9.030;2023-04-06T14:41:46;18.40;53.10
16283;DHT22;8249;48.708;9.030;2023-04-06T14:44:15;18.10;54.60
16283;DHT22;8249;48.708;9.030;2023-04-06T14:46:42;17.70;55.60
16283;DHT22;8249;48.708;9.030;2023-04-06T14:49:09;16.90;54.70
16283;DHT22;8249;48.708;9.030;2023-04-06T14:51:36;16.20;56.60
16283;DHT22;8249;48.708;9.030;2023-04-06T14:54:04;15.70;56.90
16283;DHT22;8249;48.708;9.030;2023-04-06T14:56:31;15.80;57.90
16283;DHT22;8249;48.708;9.030;2023-04-06T14:58:59;15.50;59.00
16283;DHT22;8249;48.708;9.030;2023-04-06T15:01:28;15.40;61.40
16283;DHT22;8249;48.708;9.030;2023-04-06T15:03:55;15.40;59.60
16283;DHT22;8249;48.708;9.030;2023-04-06T15:06:22;15.20;59.90
16283;DHT22;8249;48.708;9.030;2023-04-06T15:08:49;15.00;59.50
16283;DHT22;8249;48.708;9.030;2023-04-06T15:11:18;14.80;59.30
16283;DHT22;8249;48.708;9.030;2023-04-06T15:13:45;14.40;59.10
16283;DHT22;8249;48.708;9.030;2023-04-06T15:16:12;14.30;62.20
16283;DHT22;8249;48.708;9.030;2023-04-06T15:18:41;14.10;61.70
16283;DHT22;8249;48.708;9.030;2023-04-06T15:21:08;14.20;61.70
16283;DHT22;8249;48.708;9.030;2023-04-06T15:23:35;14.10;62.80
16283;DHT22;8249;48.708;9.030;2023-04-06T15:26:02;14.10;62.70
16283;DHT22;8249;48.708;9.030;2023-04-06T15:28:29;14.10;62.20
16283;DHT22;8249;48.708;9.030;2023-04-06T15:30:56;14.00;61.60
16283;DHT22;8249;48.708;9.030;2023-04-06T15:33:23;14.00;63.20
16283;DHT22;8249;48.708;9.030;2023-04-06T15:35:52;13.90;64.00
16283;DHT22;8249;48.708;9.030;2023-04-06T15:38:19;13.80;63.90
16283;DHT22;8249;48.708;9.030;2023-04-06T15:40:47;13.80;63.40
16283;DHT22;8249;48.708;9.030;2023-04-06T15:43:15;13.80;61.90
16283;DHT22;8249;48.708;9.030;2023-04-06T15:45:42;13.70;62.30
16283;DHT22;8249;48.708;9.030;2023-04-06T15:48:09;13.50;62.70
16283;DHT22;8249;48.708;9.030;2023-04-06T15:50:36;13.40;62.20
16283;DHT22;8249;48.708;9.030;2023-04-06T15:53:05;13.40;63.50
16283;DHT22;8249;48.708;9.030;2023-04-06T15:55:31;13.30;63.40
16283;DHT22;8249;48.708;9.030;2023-04-06T15:57:58;13.30;62.60
16283;DHT22;8249;48.708;9.030;2023-04-06T16:00:26;13.20;64.00